Time;durP1;ratioP1;P1;durP2;ratioP2;P2;SDS_P1;SDS_P2;PMS_P1;PMS_P2;Temp;Humidity;BMP_temperature;BMP_pressure;BME280_temperature;BME280_humidity;BME280_pressure;Samples;Min_cycle;Max_cycle;Signal;HPM_P1;HPM_P2
2021/01/14 00:00:28;;;;;;;7.40;2.80;;;20.50;39.40;;;;;;4823007;29;20105;-78
2021/01/14 00:02:54;;;;;;;4.95;2.13;;;20.50;39.40;;;;;;4797264;29;20048;-77
2021/01/14 00:05:20;;;;;;;7.63;2.40;;;20.50;39.40;;;;;;4831253;29;20106;-76
2021/01/14 00:07:45;;;;;;;5.30;2.40;;;20.40;39.30;;;;;;4835689;29;20384;-76
2021/01/14 00:10:11;;;;;;;3.08;2.03;;;20.50;40.00;;;;;;4834597;29;20085;-76
2021/01/14 00:12:39;;;;;;;3.70;2.03;;;20.50;39.40;;;;;;4831305;29;20424;-76
2021/01/14 00:15:06;;;;;;;8.00;2.20;;;20.40;39.30;;;;;;4803057;29;20403;-76
2021/01/14 00:17:32;;;;;;;8.23;2.40;;;20.50;39.30;;;;;;4808876;29;20082;-76
2021/01/14 00:19:57;;;;;;;4.45;2.03;;;20.40;39.20;;;;;;4829857;29;20070;-75
2021/01/14 00:22:38;;;;;;;5.57;2.20;;;20.50;39.20;;;;;;4813385;29;20427;-76
2021/01/14 00:25:05;;;;;;;4.00;2.10;;;20.40;39.20;;;;;;4801625;29;20030;-76
2021/01/14 00:27:31;;;;;;;5.00;1.98;;;20.40;39.10;;;;;;4824014;29;20526;-77
2021/01/14 00:29:56;;;;;;;3.75;2.30;;;20.50;39.20;;;;;;4823104;29;20053;-69
2021/01/14 00:32:22;;;;;;;4.50;2.03;;;20.40;39.10;;;;;;4837243;29;20037;-69
2021/01/14 00:34:48;;;;;;;6.95;2.25;;;20.40;39.10;;;;;;4814847;29;20035;-69
2021/01/14 00:40:14;;;;;;;4.80;2.40;;;20.40;39.10;;;;;;4820227;29;20041;-69
2021/01/14 00:42:40;;;;;;;5.97;2.33;;;20.40;39.10;;;;;;4834161;29;20125;-69
2021/01/14 00:45:06;;;;;;;3.58;2.20;;;20.40;39.10;;;;;;4835454;29;20551;-69
2021/01/14 00:47:35;;;;;;;3.90;2.60;;;20.30;39.10;;;;;;4840643;29;20062;-69
2021/01/14 00:50:01;;;;;;;4.65;2.55;;;20.30;39.30;;;;;;4818655;29;20079;-69
2021/01/14 00:52:27;;;;;;;3.85;2.03;;;20.40;39.10;;;;;;4829948;29;20113;-69
2021/01/14 00:54:52;;;;;;;5.78;2.88;;;20.30;39.00;;;;;;4838991;29;20051;-69
2021/01/14 00:57:18;;;;;;;6.70;2.83;;;20.30;39.10;;;;;;4843893;29;20018;-69
2021/01/14 00:59:44;;;;;;;4.00;2.45;;;20.30;39.10;;;;;;4825183;29;20089;-69
2021/01/14 01:02:11;;;;;;;5.70;2.70;;;20.30;39.10;;;;;;4826084;29;20109;-69
2021/01/14 01:04:37;;;;;;;6.00;2.83;;;20.30;39.10;;;;;;4793484;29;20038;-69
2021/01/14 01:07:03;;;;;;;5.35;3.28;;;20.30;39.20;;;;;;4827828;29;20039;-70
2021/01/14 01:09:28;;;;;;;7.70;3.50;;;20.30;39.10;;;;;;4835439;29;20061;-75
2021/01/14 01:11:54;;;;;;;8.40;3.70;;;20.20;39.10;;;;;;4845219;29;20026;-75
2021/01/14 01:14:20;;;;;;;7.20;4.00;;;20.20;39.20;;;;;;4834848;29;20042;-76
2021/01/14 01:16:46;;;;;;;5.68;4.20;;;20.20;39.20;;;;;;4826247;29;20031;-76
2021/01/14 01:19:11;;;;;;;6.60;4.20;;;20.20;39.20;;;;;;4814306;29;20034;-76
2021/01/14 01:21:41;;;;;;;6.75;4.22;;;20.20;39.20;;;;;;4816273;29;20049;-76
2021/01/14 01:24:07;;;;;;;7.38;4.15;;;20.20;39.20;;;;;;4818347;29;20053;-77
2021/01/14 01:26:33;;;;;;;9.18;4.65;;;20.20;39.20;;;;;;4822976;29;20041;-77
2021/01/14 01:28:58;;;;;;;9.15;4.47;;;20.20;39.30;;;;;;4837460;29;20038;-76
2021/01/14 01:31:24;;;;;;;9.57;4.82;;;20.20;39.30;;;;;;4843164;29;20030;-76
2021/01/14 01:33:50;;;;;;;9.30;4.97;;;20.10;39.30;;;;;;4826401;29;20456;-76
2021/01/14 01:36:15;;;;;;;7.75;4.50;;;20.10;39.30;;;;;;4825931;29;20038;-79
2021/01/14 01:38:41;;;;;;;9.75;4.95;;;20.10;39.30;;;;;;4827009;29;20499;-79
2021/01/14 01:41:06;;;;;;;8.20;4.68;;;20.10;39.40;;;;;;4831778;29;20026;-79
2021/01/14 01:43:32;;;;;;;7.07;4.82;;;20.10;39.30;;;;;;4813608;29;20083;-78
2021/01/14 01:45:58;;;;;;;9.68;5.38;;;20.10;39.30;;;;;;4809764;29;20121;-79
2021/01/14 01:48:23;;;;;;;9.68;5.53;;;20.10;39.30;;;;;;4795127;29;20035;-79
2021/01/14 01:50:50;;;;;;;10.55;3.95;;;20.10;39.30;;;;;;4814475;29;20062;-79
2021/01/14 01:53:16;;;;;;;10.25;5.75;;;20.10;39.30;;;;;;4779842;29;20050;-79
2021/01/14 01:55:43;;;;;;;9.52;5.13;;;20.10;39.30;;;;;;4809246;29;20622;-79
2021/01/14 01:58:08;;;;;;;9.27;4.85;;;20.10;39.30;;;;;;4823618;29;20600;-79
2021/01/14 02:00:34;;;;;;;11.00;5.72;;;20.10;39.30;;;;;;4800494;29;20101;-79
2021/01/14 02:02:59;;;;;;;8.43;4.68;;;20.00;39.20;;;;;;4825638;29;20416;-79
2021/01/14 02:05:25;;;;;;;11.35;5.10;;;20.10;39.20;;;;;;4808696;29;20042;-79
2021/01/14 02:08:04;;;;;;;8.88;4.82;;;20.10;39.20;;;;;;4798660;29;20536;-79
2021/01/14 02:10:41;;;;;;;8.63;4.05;;;20.00;39.20;;;;;;4809877;29;20060;-79
2021/01/14 02:13:22;;;;;;;10.27;5.38;;;20.00;39.20;;;;;;4794943;29;20039;-77
2021/01/14 02:15:50;;;;;;;11.77;5.50;;;20.00;39.20;;;;;;4825747;29;20039;-78
2021/01/14 02:18:25;;;;;;;8.73;4.47;;;20.00;39.20;;;;;;4807206;29;20407;-78
2021/01/14 02:20:54;;;;;;;11.20;5.10;;;20.00;39.20;;;;;;4825359;29;20040;-77
2021/01/14 02:23:35;;;;;;;14.40;6.22;;;20.00;39.30;;;;;;4823706;29;20307;-77
2021/01/14 02:26:09;;;;;;;11.93;5.18;;;20.00;39.30;;;;;;4840534;29;20445;-77
2021/01/14 02:28:35;;;;;;;10.27;5.47;;;20.00;39.30;;;;;;4834937;29;20125;-76
2021/01/14 02:31:01;;;;;;;10.32;5.20;;;20.00;39.30;;;;;;4797954;29;20175;-77
2021/01/14 02:33:26;;;;;;;8.00;4.32;;;20.00;39.30;;;;;;4795064;29;20074;-77
2021/01/14 02:35:52;;;;;;;14.63;6.25;;;20.00;39.30;;;;;;4826160;29;20045;-70
2021/01/14 02:38:17;;;;;;;8.30;5.03;;;20.00;39.30;;;;;;4825843;29;20022;-70
2021/01/14 02:40:43;;;;;;;8.77;5.35;;;19.90;39.30;;;;;;4825088;29;20117;-69
2021/01/14 02:43:08;;;;;;;8.82;4.85;;;19.90;39.30;;;;;;4815418;29;20387;-70
2021/01/14 02:45:34;;;;;;;7.05;4.15;;;19.90;39.30;;;;;;4823827;29;20083;-78
2021/01/14 02:48:01;;;;;;;6.82;4.18;;;19.90;39.40;;;;;;4810012;29;20427;-79
2021/01/14 02:50:27;;;;;;;9.20;3.95;;;19.90;39.40;;;;;;4817656;29;20042;-80
2021/01/14 02:52:52;;;;;;;7.45;4.85;;;19.90;39.50;;;;;;4799113;29;20466;-79
2021/01/14 02:55:18;;;;;;;7.63;4.20;;;19.90;39.50;;;;;;4778508;29;20072;-79
2021/01/14 02:57:43;;;;;;;9.93;3.25;;;19.90;39.50;;;;;;4813287;29;20027;-76
2021/01/14 03:00:10;;;;;;;7.75;4.03;;;19.90;39.60;;;;;;4778363;29;20183;-76
2021/01/14 03:02:35;;;;;;;6.03;3.70;;;19.80;39.60;;;;;;4808730;29;20018;-78
2021/01/14 03:05:01;;;;;;;7.25;3.33;;;19.80;39.60;;;;;;4824831;29;20103;-78
2021/01/14 03:07:26;;;;;;;4.97;3.58;;;19.80;39.60;;;;;;4832099;29;20041;-78
2021/01/14 03:09:52;;;;;;;8.57;3.63;;;19.80;39.60;;;;;;4825506;29;20054;-78
2021/01/14 03:12:17;;;;;;;6.03;3.92;;;19.80;39.60;;;;;;4825831;29;20034;-78
2021/01/14 03:14:43;;;;;;;7.25;3.83;;;19.80;39.60;;;;;;4814685;29;20080;-78
2021/01/14 03:17:09;;;;;;;7.07;3.75;;;19.80;39.60;;;;;;4824051;29;20030;-78
2021/01/14 03:19:34;;;;;;;8.20;3.95;;;19.80;39.70;;;;;;4824593;29;20034;-78
2021/01/14 03:22:00;;;;;;;8.65;3.80;;;19.80;39.60;;;;;;4825226;29;20042;-78
2021/01/14 03:24:26;;;;;;;6.75;3.35;;;19.80;39.60;;;;;;4839579;29;20036;-78
2021/01/14 03:26:52;;;;;;;7.90;3.75;;;19.80;39.60;;;;;;4841529;29;20037;-78
2021/01/14 03:29:18;;;;;;;8.75;4.13;;;19.70;39.60;;;;;;4816871;29;20419;-79
2021/01/14 03:31:43;;;;;;;7.38;3.67;;;19.80;39.60;;;;;;4824494;29;20045;-78
2021/01/14 03:34:09;;;;;;;4.85;3.40;;;19.80;39.60;;;;;;4831410;29;20034;-78
2021/01/14 03:36:34;;;;;;;5.80;4.05;;;19.80;39.50;;;;;;4824177;29;20062;-78
2021/01/14 03:39:00;;;;;;;6.75;3.75;;;19.80;39.50;;;;;;4795947;29;20044;-69
2021/01/14 03:41:26;;;;;;;7.13;3.45;;;19.80;39.50;;;;;;4824360;29;20034;-69
2021/01/14 03:43:51;;;;;;;5.82;3.88;;;19.80;39.50;;;;;;4812064;29;20525;-69
2021/01/14 03:46:20;;;;;;;6.68;4.07;;;19.80;39.40;;;;;;4831979;29;20030;-69
2021/01/14 03:48:46;;;;;;;9.30;4.15;;;19.80;39.50;;;;;;4793629;29;20126;-69
2021/01/14 03:51:21;;;;;;;7.18;3.92;;;19.80;40.10;;;;;;4792273;29;20042;-69
2021/01/14 03:53:48;;;;;;;8.82;3.88;;;19.80;39.40;;;;;;4812412;29;20054;-69
2021/01/14 03:56:14;;;;;;;5.18;3.28;;;19.80;39.50;;;;;;4811573;29;20436;-70
2021/01/14 03:58:40;;;;;;;5.07;3.38;;;19.80;39.50;;;;;;4824884;29;20054;-69
2021/01/14 04:01:06;;;;;;;6.80;3.85;;;19.70;39.40;;;;;;4814485;29;20066;-69
2021/01/14 04:03:32;;;;;;;6.30;4.10;;;19.70;39.40;;;;;;4825145;29;20026;-69
2021/01/14 04:05:57;;;;;;;6.22;3.78;;;19.70;39.50;;;;;;4828335;29;20669;-69
2021/01/14 04:08:23;;;;;;;5.60;3.60;;;19.70;39.50;;;;;;4826030;29;20106;-69
2021/01/14 04:10:48;;;;;;;2.08;1.50;;;19.70;39.40;;;;;;4824110;29;20089;-69
2021/01/14 04:13:14;;;;;;;3.20;1.73;;;19.70;39.50;;;;;;4783697;29;20077;-69
2021/01/14 04:15:40;;;;;;;7.60;4.20;;;19.70;39.50;;;;;;4828872;29;20038;-69
2021/01/14 04:18:06;;;;;;;6.20;3.22;;;19.70;39.50;;;;;;4807671;29;20582;-69
2021/01/14 04:20:32;;;;;;;6.18;4.00;;;19.70;39.50;;;;;;4815027;29;20034;-69
2021/01/14 04:22:57;;;;;;;5.78;2.70;;;19.70;39.60;;;;;;4827229;29;20099;-69
2021/01/14 04:25:30;;;;;;;8.50;2.97;;;19.70;39.50;;;;;;4829090;29;20030;-69
2021/01/14 04:27:57;;;;;;;8.60;3.53;;;19.70;39.50;;;;;;4824557;29;20503;-69
2021/01/14 04:30:23;;;;;;;4.85;3.17;;;19.60;39.50;;;;;;4801821;29;20042;-69
2021/01/14 04:32:57;;;;;;;7.70;4.15;;;19.60;39.60;;;;;;4830649;29;20393;-69
2021/01/14 04:35:24;;;;;;;6.55;3.67;;;19.60;39.60;;;;;;4829152;29;20030;-68
2021/01/14 04:37:49;;;;;;;3.65;2.38;;;19.60;39.60;;;;;;4831608;29;20030;-68
2021/01/14 04:40:15;;;;;;;4.03;2.08;;;19.60;39.60;;;;;;4839439;29;20099;-69
2021/01/14 04:42:41;;;;;;;6.28;2.97;;;19.60;39.70;;;;;;4830368;29;20026;-69
2021/01/14 04:45:07;;;;;;;5.80;3.25;;;19.60;39.70;;;;;;4814416;29;20030;-69
2021/01/14 04:47:33;;;;;;;4.88;3.05;;;19.60;39.70;;;;;;4827212;29;20046;-69
2021/01/14 04:49:58;;;;;;;3.95;2.85;;;19.50;39.60;;;;;;4803210;29;20060;-69
2021/01/14 04:52:24;;;;;;;5.05;2.75;;;19.50;39.70;;;;;;4819136;29;20034;-69
2021/01/14 04:54:50;;;;;;;5.25;2.70;;;19.50;39.70;;;;;;4798243;29;20445;-69
2021/01/14 04:57:21;;;;;;;4.80;2.53;;;19.50;39.60;;;;;;4795226;29;20058;-69
2021/01/14 04:59:50;;;;;;;0.38;0.30;;;19.50;39.60;;;;;;4796060;29;20034;-69
2021/01/14 05:02:20;;;;;;;1.73;0.35;;;19.50;39.60;;;;;;4810411;29;20048;-69
2021/01/14 05:04:46;;;;;;;0.98;0.50;;;19.50;40.40;;;;;;4797085;29;20030;-69
2021/01/14 05:07:11;;;;;;;0.30;0.20;;;19.50;39.70;;;;;;4794500;29;20767;-68
2021/01/14 05:09:39;;;;;;;1.00;0.45;;;19.60;39.60;;;;;;4794287;29;20534;-69
2021/01/14 05:12:05;;;;;;;0.77;0.60;;;19.70;39.50;;;;;;4811318;29;20042;-69
2021/01/14 05:14:30;;;;;;;1.42;0.63;;;19.70;39.30;;;;;;4809925;29;20058;-69
2021/01/14 05:16:56;;;;;;;0.63;0.30;;;19.80;39.30;;;;;;4808351;29;20062;-79
2021/01/14 05:19:21;;;;;;;0.55;0.55;;;19.90;39.10;;;;;;4794869;29;20031;-79
2021/01/14 05:21:47;;;;;;;0.65;0.30;;;20.00;39.00;;;;;;4825360;29;20035;-79
2021/01/14 05:24:14;;;;;;;0.57;0.57;;;20.10;38.80;;;;;;4796268;29;20364;-79
2021/01/14 05:26:41;;;;;;;1.75;0.50;;;20.10;38.60;;;;;;4796005;29;20066;-69
2021/01/14 05:29:16;;;;;;;0.60;0.60;;;20.20;38.40;;;;;;4825504;29;20041;-68
2021/01/14 05:31:45;;;;;;;2.25;2.05;;;20.30;38.20;;;;;;4810254;29;20027;-68
2021/01/14 05:34:11;;;;;;;2.00;1.90;;;20.40;38.70;;;;;;4810866;29;20046;-68
2021/01/14 05:36:53;;;;;;;1.15;0.55;;;20.50;37.90;;;;;;4809767;29;20041;-69
2021/01/14 05:39:20;;;;;;;0.60;0.60;;;20.60;37.70;;;;;;4807226;29;20023;-69
2021/01/14 05:41:47;;;;;;;1.70;1.55;;;20.60;37.60;;;;;;4825599;29;20030;-68
2021/01/14 05:44:12;;;;;;;1.55;0.68;;;20.60;37.40;;;;;;4812471;29;20491;-68
2021/01/14 05:46:38;;;;;;;0.90;0.50;;;20.70;37.40;;;;;;4824712;29;20042;-68
2021/01/14 05:49:04;;;;;;;1.60;1.30;;;20.70;37.40;;;;;;4825156;29;20034;-69
2021/01/14 05:51:31;;;;;;;1.25;0.60;;;20.80;37.20;;;;;;4825109;29;20049;-69
2021/01/14 05:54:12;;;;;;;0.40;0.40;;;20.70;37.10;;;;;;4809513;29;20030;-69
2021/01/14 05:56:48;;;;;;;1.40;1.30;;;20.80;37.20;;;;;;4795338;29;20066;-69
2021/01/14 05:59:18;;;;;;;0.35;0.32;;;20.80;37.10;;;;;;4794134;29;20067;-69
2021/01/14 06:01:53;;;;;;;0.47;0.38;;;20.70;37.10;;;;;;4809464;29;20026;-69
2021/01/14 06:04:20;;;;;;;1.38;1.27;;;20.70;37.10;;;;;;4825262;29;20030;-69
2021/01/14 06:06:47;;;;;;;0.47;0.40;;;20.80;37.00;;;;;;4808821;29;20452;-69
2021/01/14 06:09:14;;;;;;;0.70;0.30;;;20.80;37.00;;;;;;4810348;29;20030;-69
2021/01/14 06:11:40;;;;;;;1.55;1.15;;;20.80;36.90;;;;;;4824678;29;20500;-69
2021/01/14 06:14:06;;;;;;;0.30;0.30;;;20.80;36.90;;;;;;4794330;29;20729;-79
2021/01/14 06:16:47;;;;;;;0.93;0.50;;;20.80;36.90;;;;;;4808348;29;20038;-78
2021/01/14 06:19:13;;;;;;;0.98;0.80;;;20.80;36.90;;;;;;4809161;29;20392;-77
2021/01/14 06:21:48;;;;;;;0.35;0.35;;;20.80;36.80;;;;;;4827407;29;20034;-76
2021/01/14 06:24:42;;;;;;;1.30;0.90;;;20.80;36.80;;;;;;4822721;29;20022;-78
2021/01/14 06:27:09;;;;;;;0.15;0.15;;;20.90;36.80;;;;;;4753935;30;20138;-82
2021/01/14 06:29:36;;;;;;;0.30;0.30;;;20.90;36.80;;;;;;4753954;30;20032;-78
2021/01/14 06:32:22;;;;;;;0.40;0.40;;;20.90;36.70;;;;;;4768803;30;20051;-79
2021/01/14 06:34:49;;;;;;;0.22;0.22;;;20.90;36.70;;;;;;4769251;30;20058;-81
2021/01/14 06:37:24;;;;;;;0.63;0.20;;;20.90;36.70;;;;;;4752063;30;20462;-78
2021/01/14 06:39:51;;;;;;;1.45;0.57;;;20.90;36.70;;;;;;4772275;30;20028;-78
2021/01/14 06:42:27;;;;;;;0.32;0.20;;;20.90;36.80;;;;;;4768870;30;20180;-75
2021/01/14 06:44:53;;;;;;;2.25;0.60;;;20.90;36.80;;;;;;4771146;30;20077;-75
2021/01/14 06:47:37;;;;;;;0.95;0.28;;;20.90;36.70;;;;;;4757260;30;20433;-74
2021/01/14 06:50:12;;;;;;;0.30;0.20;;;20.90;36.70;;;;;;4768274;30;20044;-74
2021/01/14 06:52:42;;;;;;;0.88;0.50;;;20.90;36.70;;;;;;4761914;30;20551;-74
2021/01/14 06:55:08;;;;;;;0.52;0.20;;;21.00;36.60;;;;;;4753004;30;20032;-75
2021/01/14 06:57:35;;;;;;;0.10;0.10;;;21.00;36.50;;;;;;4771562;30;20398;-74
2021/01/14 07:00:01;;;;;;;0.55;0.47;;;21.00;36.50;;;;;;4767543;30;20040;-74
2021/01/14 07:02:35;;;;;;;0.45;0.13;;;21.10;36.50;;;;;;4762593;29;20046;-72
2021/01/14 07:05:39;;;;;;;0.22;0.20;;;21.10;36.40;;;;;;4826018;29;20042;-74
2021/01/14 07:08:37;;;;;;;1.88;0.15;;;21.10;36.30;;;;;;4824396;29;20502;-68
2021/01/14 07:11:14;;;;;;;0.10;0.00;;;21.20;36.30;;;;;;4809174;29;20129;-68
2021/01/14 07:13:43;;;;;;;0.60;0.50;;;21.20;36.20;;;;;;4816523;29;20044;-71
2021/01/14 07:16:10;;;;;;;0.13;0.10;;;21.20;36.20;;;;;;4813622;29;20041;-69
2021/01/14 07:18:37;;;;;;;0.35;0.10;;;21.30;36.20;;;;;;4807539;29;20046;-70
2021/01/14 07:21:29;;;;;;;1.38;0.50;;;21.30;36.80;;;;;;4819287;29;20026;-70
2021/01/14 07:23:59;;;;;;;0.95;0.20;;;21.30;36.10;;;;;;4814267;29;20037;-69
2021/01/14 07:26:25;;;;;;;1.77;0.52;;;21.30;36.00;;;;;;4796884;29;20087;-68
2021/01/14 07:28:51;;;;;;;0.32;0.20;;;21.40;36.00;;;;;;4810655;29;20034;-69
2021/01/14 07:31:21;;;;;;;0.50;0.20;;;21.40;36.10;;;;;;4801664;29;20049;-69
2021/01/14 07:33:47;;;;;;;1.75;0.80;;;21.50;36.00;;;;;;4808667;29;20034;-68
2021/01/14 07:36:20;;;;;;;2.35;0.20;;;21.50;36.00;;;;;;4811480;29;20038;-69
2021/01/14 07:38:51;;;;;;;0.35;0.25;;;21.50;35.90;;;;;;4791866;29;20039;-69
2021/01/14 07:41:16;;;;;;;0.88;0.50;;;21.60;35.90;;;;;;4823362;29;20510;-68
2021/01/14 07:43:45;;;;;;;0.03;0.03;;;21.60;35.90;;;;;;4797811;29;20038;-72
2021/01/14 07:46:14;;;;;;;0.10;0.10;;;21.60;35.70;;;;;;4824306;29;20030;-72
2021/01/14 07:48:40;;;;;;;0.63;0.40;;;21.70;35.70;;;;;;4829420;29;20038;-73
2021/01/14 07:51:05;;;;;;;0.50;0.20;;;21.70;35.70;;;;;;4834509;29;20094;-72
2021/01/14 07:53:31;;;;;;;0.22;0.20;;;21.70;35.60;;;;;;4835892;29;20037;-72
2021/01/14 07:56:00;;;;;;;1.13;0.60;;;21.70;35.70;;;;;;4802968;29;20034;-73
2021/01/14 07:58:25;;;;;;;0.25;0.13;;;21.70;35.70;;;;;;4815410;29;20565;-72
2021/01/14 08:01:07;;;;;;;1.33;0.13;;;21.70;35.70;;;;;;4793631;29;20027;-72
2021/01/14 08:03:39;;;;;;;1.85;0.50;;;21.70;35.80;;;;;;4794126;29;20553;-72
2021/01/14 08:06:30;;;;;;;0.65;0.17;;;21.70;35.80;;;;;;4812576;29;20023;-72
2021/01/14 08:09:05;;;;;;;0.13;0.10;;;21.70;35.70;;;;;;4766428;30;20043;-68
2021/01/14 08:11:57;;;;;;;2.22;0.70;;;21.60;35.80;;;;;;4741518;30;20418;-69
2021/01/14 08:14:36;;;;;;;0.20;0.10;;;21.70;35.90;;;;;;4729463;30;20037;-69
2021/01/14 08:17:01;;;;;;;1.23;0.60;;;21.70;35.90;;;;;;4748641;30;20036;-69
2021/01/14 08:19:33;;;;;;;3.60;0.52;;;21.70;35.90;;;;;;4743821;30;20588;-72
2021/01/14 08:21:58;;;;;;;0.50;0.20;;;21.70;35.90;;;;;;4750382;30;20089;-69
2021/01/14 08:24:52;;;;;;;1.85;0.47;;;21.70;35.80;;;;;;4759585;30;20518;-69
2021/01/14 08:27:21;;;;;;;0.47;0.30;;;21.70;35.80;;;;;;4754972;30;20051;-69
2021/01/14 08:30:00;;;;;;;0.10;0.10;;;21.70;35.90;;;;;;4765210;30;20105;-69
2021/01/14 08:32:33;;;;;;;1.58;0.85;;;21.70;35.70;;;;;;4758445;29;20108;-69
2021/01/14 08:34:59;;;;;;;0.30;0.30;;;21.70;35.70;;;;;;4742734;30;20481;-69
2021/01/14 08:37:29;;;;;;;2.63;0.60;;;21.60;35.80;;;;;;4751991;30;20045;-69
2021/01/14 08:39:57;;;;;;;2.83;1.30;;;21.60;35.70;;;;;;4767665;30;20079;-69
2021/01/14 08:42:30;;;;;;;0.10;0.10;;;21.60;35.70;;;;;;4753055;30;20028;-69
2021/01/14 08:45:00;;;;;;;0.55;0.22;;;21.60;35.70;;;;;;4759874;29;20067;-69
2021/01/14 08:48:14;;;;;;;3.38;1.10;;;21.60;35.70;;;;;;4808617;29;20098;-69
2021/01/14 08:50:49;;;;;;;0.63;0.20;;;21.60;35.70;;;;;;4825201;29;20129;-69
2021/01/14 08:53:17;;;;;;;0.20;0.20;;;21.60;35.70;;;;;;4814935;29;20043;-69
2021/01/14 08:56:20;;;;;;;1.33;0.60;;;21.60;35.70;;;;;;4825267;29;20072;-69
2021/01/14 08:58:47;;;;;;;0.30;0.30;;;21.60;35.70;;;;;;4830363;29;20035;-69
2021/01/14 09:01:23;;;;;;;0.22;0.13;;;21.60;35.70;;;;;;4806980;29;20050;-69
2021/01/14 09:03:50;;;;;;;4.03;1.10;;;21.60;35.80;;;;;;4809384;29;20558;-69
2021/01/14 09:06:16;;;;;;;0.30;0.20;;;21.60;35.70;;;;;;4825091;29;20117;-69
2021/01/14 09:08:42;;;;;;;0.30;0.30;;;21.60;35.80;;;;;;4837861;29;20026;-69
2021/01/14 09:11:08;;;;;;;1.23;0.20;;;21.60;35.80;;;;;;4808959;29;20075;-69
2021/01/14 09:13:33;;;;;;;0.85;0.40;;;21.60;35.80;;;;;;4807660;29;20048;-69
2021/01/14 09:16:11;;;;;;;0.22;0.20;;;21.60;35.90;;;;;;4809293;29;20031;-69
2021/01/14 09:18:39;;;;;;;0.47;0.00;;;21.60;35.80;;;;;;4820186;29;20587;-69
2021/01/14 09:21:05;;;;;;;2.03;0.90;;;21.60;35.80;;;;;;4809644;29;20503;-69
2021/01/14 09:23:35;;;;;;;3.40;0.20;;;21.60;35.80;;;;;;4800653;29;20094;-69
2021/01/14 09:26:12;;;;;;;0.73;0.20;;;21.60;35.80;;;;;;4827990;29;20038;-69
2021/01/14 09:28:38;;;;;;;0.30;0.10;;;21.60;35.80;;;;;;4797818;29;20038;-69
2021/01/14 09:31:08;;;;;;;2.88;0.90;;;21.60;35.80;;;;;;4810023;29;20046;-69
2021/01/14 09:33:38;;;;;;;0.10;0.10;;;21.60;35.90;;;;;;4810501;29;20034;-69
2021/01/14 09:36:14;;;;;;;1.27;0.15;;;21.60;35.90;;;;;;4825950;29;20040;-73
2021/01/14 09:38:53;;;;;;;4.78;1.40;;;21.60;35.90;;;;;;4826758;29;20399;-73
2021/01/14 09:41:32;;;;;;;0.45;0.30;;;21.60;35.80;;;;;;4820968;29;20026;-73
2021/01/14 09:44:12;;;;;;;0.00;0.00;;;21.60;35.90;;;;;;4815606;29;20078;-69
2021/01/14 09:46:42;;;;;;;0.47;0.13;;;21.60;35.90;;;;;;4825876;29;20046;-69
2021/01/14 09:49:14;;;;;;;2.13;1.00;;;21.60;35.90;;;;;;4813196;29;20046;-69
2021/01/14 09:51:41;;;;;;;0.10;0.10;;;21.60;35.90;;;;;;4832787;29;20056;-69
2021/01/14 09:54:07;;;;;;;6.03;0.20;;;21.60;35.80;;;;;;4801882;29;20525;-69
2021/01/14 09:56:39;;;;;;;0.30;0.20;;;21.60;35.80;;;;;;4817243;29;20102;-69
2021/01/14 09:59:07;;;;;;;2.92;1.00;;;21.60;35.80;;;;;;4809657;29;20053;-69
2021/01/14 10:01:35;;;;;;;0.43;0.10;;;21.60;35.80;;;;;;4810349;29;20038;-69
2021/01/14 10:04:06;;;;;;;0.10;0.10;;;21.60;35.60;;;;;;4794947;29;20027;-69
2021/01/14 10:06:35;;;;;;;0.10;0.10;;;21.60;35.70;;;;;;4795674;29;20511;-70
2021/01/14 10:09:00;;;;;;;3.10;1.80;;;21.60;35.70;;;;;;4827572;29;20567;-70
2021/01/14 10:11:27;;;;;;;0.38;0.22;;;21.60;35.70;;;;;;4832347;29;20054;-69
2021/01/14 10:13:53;;;;;;;0.20;0.20;;;21.60;35.60;;;;;;4807318;29;20533;-70
2021/01/14 10:16:19;;;;;;;0.70;0.13;;;21.60;35.60;;;;;;4819759;29;20074;-70
2021/01/14 10:18:45;;;;;;;4.07;1.35;;;21.60;35.70;;;;;;4827744;29;20109;-70
2021/01/14 10:21:13;;;;;;;0.17;0.10;;;21.60;35.60;;;;;;4843020;29;20509;-69
2021/01/14 10:23:39;;;;;;;0.20;0.10;;;21.60;35.60;;;;;;4798411;29;20023;-69
2021/01/14 10:26:05;;;;;;;0.03;0.00;;;21.70;35.60;;;;;;4825175;29;20109;-69
2021/01/14 10:28:41;;;;;;;0.30;0.30;;;21.70;35.50;;;;;;4817845;29;20087;-70
2021/01/14 10:31:07;;;;;;;3.15;1.42;;;21.70;35.50;;;;;;4819098;29;20134;-69
2021/01/14 10:33:33;;;;;;;0.77;0.57;;;21.70;35.50;;;;;;4828914;29;20517;-70
2021/01/14 10:35:58;;;;;;;1.38;0.17;;;21.70;35.50;;;;;;4827544;29;20038;-69
2021/01/14 10:38:24;;;;;;;1.95;0.73;;;21.70;35.50;;;;;;4805742;29;20423;-70
2021/01/14 10:40:51;;;;;;;2.20;1.17;;;21.70;35.50;;;;;;4824618;29;20022;-70
2021/01/14 10:43:30;;;;;;;8.40;0.60;;;21.70;35.50;;;;;;4791268;29;20510;-73
2021/01/14 10:45:56;;;;;;;0.08;0.08;;;21.70;35.50;;;;;;4794190;29;20040;-73
2021/01/14 10:48:22;;;;;;;1.38;0.43;;;21.70;35.50;;;;;;4807340;29;20046;-73
2021/01/14 10:50:49;;;;;;;3.30;1.67;;;21.70;35.50;;;;;;4808996;29;20037;-69
2021/01/14 10:53:29;;;;;;;1.55;0.32;;;21.70;35.50;;;;;;4781388;29;20408;-69
2021/01/14 10:56:02;;;;;;;2.40;0.65;;;21.70;35.50;;;;;;4811528;29;20123;-69
2021/01/14 10:58:28;;;;;;;0.45;0.30;;;21.70;35.40;;;;;;4821355;29;20034;-70
2021/01/14 11:00:55;;;;;;;1.55;0.32;;;21.70;35.40;;;;;;4808407;29;20165;-70
2021/01/14 11:03:22;;;;;;;4.85;1.60;;;21.70;35.50;;;;;;4808053;29;20546;-69
2021/01/14 11:05:55;;;;;;;0.68;0.43;;;21.70;35.50;;;;;;4824824;29;20042;-69
2021/01/14 11:08:40;;;;;;;0.25;0.22;;;21.70;35.50;;;;;;4794344;29;20407;-70
2021/01/14 11:11:15;;;;;;;3.42;0.22;;;21.70;35.50;;;;;;4824278;29;20050;-70
2021/01/14 11:13:42;;;;;;;2.20;0.70;;;21.70;35.50;;;;;;4808139;29;20042;-73
2021/01/14 11:16:11;;;;;;;1.98;1.05;;;21.70;35.50;;;;;;4823948;29;20075;-73
2021/01/14 11:18:47;;;;;;;0.73;0.10;;;21.70;35.50;;;;;;4808358;29;20034;-73
2021/01/14 11:21:15;;;;;;;0.10;0.10;;;21.70;35.50;;;;;;4776335;29;20046;-73
2021/01/14 11:23:41;;;;;;;5.53;0.60;;;21.70;35.50;;;;;;4804934;29;20357;-73
2021/01/14 11:26:07;;;;;;;5.28;1.33;;;21.70;35.50;;;;;;4806337;29;20031;-74
2021/01/14 11:28:41;;;;;;;0.45;0.25;;;21.70;35.50;;;;;;4814890;29;20046;-73
2021/01/14 11:31:13;;;;;;;0.25;0.13;;;21.60;35.50;;;;;;4808038;29;20045;-73
2021/01/14 11:33:38;;;;;;;0.10;0.10;;;21.60;35.50;;;;;;4826847;29;20108;-73
2021/01/14 11:36:11;;;;;;;2.45;1.00;;;21.60;35.50;;;;;;4795040;29;20113;-70
2021/01/14 11:38:36;;;;;;;0.20;0.10;;;21.60;35.40;;;;;;4801161;29;20518;-69
2021/01/14 11:41:02;;;;;;;0.17;0.10;;;21.60;35.50;;;;;;4832933;29;20022;-69
2021/01/14 11:43:28;;;;;;;0.80;0.32;;;21.60;35.60;;;;;;4805195;29;20491;-69
2021/01/14 11:45:54;;;;;;;2.90;1.00;;;21.60;35.50;;;;;;4791682;29;20088;-69
2021/01/14 11:48:19;;;;;;;0.35;0.30;;;21.60;35.50;;;;;;4803960;29;20042;-69
2021/01/14 11:50:45;;;;;;;0.63;0.43;;;21.60;35.60;;;;;;4822164;29;20030;-70
2021/01/14 11:53:10;;;;;;;3.88;1.42;;;21.60;35.60;;;;;;4791539;29;20046;-70
2021/01/14 11:55:36;;;;;;;0.10;0.10;;;21.60;35.50;;;;;;4825203;29;20031;-69
2021/01/14 11:58:02;;;;;;;0.32;0.32;;;21.60;35.50;;;;;;4805595;29;20054;-69
2021/01/14 12:00:28;;;;;;;1.75;0.28;;;21.60;35.50;;;;;;4807137;29;20499;-69
2021/01/14 12:02:53;;;;;;;0.17;0.17;;;21.60;35.60;;;;;;4815927;29;20042;-69
2021/01/14 12:05:19;;;;;;;0.40;0.40;;;21.60;35.50;;;;;;4823064;29;20053;-69
2021/01/14 12:07:45;;;;;;;2.45;1.33;;;21.60;35.60;;;;;;4823056;29;20026;-70
2021/01/14 12:10:10;;;;;;;2.00;0.20;;;21.60;35.60;;;;;;4805779;29;20050;-70
2021/01/14 12:12:48;;;;;;;0.38;0.10;;;21.60;35.60;;;;;;4822718;29;20027;-70
2021/01/14 12:15:14;;;;;;;0.73;0.30;;;21.60;35.60;;;;;;4821986;29;20019;-69
2021/01/14 12:17:39;;;;;;;0.98;0.25;;;21.60;35.60;;;;;;4820630;29;20476;-70
2021/01/14 12:20:05;;;;;;;5.22;1.95;;;21.60;35.60;;;;;;4818109;29;20029;-70
2021/01/14 12:22:32;;;;;;;0.30;0.17;;;21.60;35.60;;;;;;4821948;29;20031;-70
2021/01/14 12:24:57;;;;;;;0.68;0.20;;;21.60;35.60;;;;;;4824259;29;20021;-70
2021/01/14 12:27:23;;;;;;;2.08;0.38;;;21.60;35.60;;;;;;4821660;29;20035;-73
2021/01/14 12:29:49;;;;;;;0.63;0.52;;;21.60;35.60;;;;;;4820266;29;20055;-73
2021/01/14 12:32:23;;;;;;;0.28;0.28;;;21.50;35.60;;;;;;4821010;29;20087;-73
2021/01/14 12:34:55;;;;;;;4.87;2.10;;;21.60;35.60;;;;;;4820787;29;20517;-73
2021/01/14 12:37:21;;;;;;;0.70;0.20;;;21.60;35.70;;;;;;4807399;29;20287;-70
2021/01/14 12:39:46;;;;;;;0.75;0.10;;;21.50;35.70;;;;;;4825914;29;20030;-70
2021/01/14 12:42:12;;;;;;;1.65;0.20;;;21.50;35.70;;;;;;4826176;29;20102;-70
2021/01/14 12:44:38;;;;;;;0.28;0.28;;;21.50;35.60;;;;;;4811115;29;20041;-70
2021/01/14 12:47:04;;;;;;;0.38;0.20;;;21.50;35.60;;;;;;4792456;29;20030;-70
2021/01/14 12:49:29;;;;;;;4.03;0.10;;;21.50;35.60;;;;;;4813447;29;20517;-70
2021/01/14 12:51:55;;;;;;;1.60;0.40;;;21.50;35.70;;;;;;4810101;29;20041;-70
2021/01/14 12:54:22;;;;;;;0.10;0.10;;;21.50;35.70;;;;;;4807167;29;20400;-70
2021/01/14 12:56:47;;;;;;;1.30;0.98;;;21.50;35.70;;;;;;4822832;29;20167;-69